Time;durP1;ratioP1;P1;durP2;ratioP2;P2;SDS_P1;SDS_P2;PMS_P1;PMS_P2;Temp;Humidity;BMP_temperature;BMP_pressure;BME280_temperature;BME280_humidity;BME280_pressure;Samples;Min_cycle;Max_cycle;Signal;HPM_P1;HPM_P2
2021/06/24 00:01:46;;;;;;;22.50;17.53;;;;;;;22.00;65.73;100293.28;126794;1089;113526;-80
2021/06/24 00:04:34;;;;;;;19.90;16.83;;;;;;;21.99;66.19;100288.94;126807;1089;102859;-79
2021/06/24 00:07:22;;;;;;;21.00;17.07;;;;;;;21.98;65.82;100284.59;126637;1088;114605;-79
2021/06/24 00:10:11;;;;;;;18.63;16.63;;;;;;;21.97;66.40;100280.25;126723;1090;102975;-79
2021/06/24 00:12:59;;;;;;;18.17;16.03;;;;;;;21.96;66.34;100283.88;126747;1090;113370;-79
2021/06/24 00:15:49;;;;;;;19.90;17.67;;;;;;;21.93;66.22;100290.28;126705;1090;103133;-79
2021/06/24 00:18:37;;;;;;;19.80;16.60;;;;;;;21.91;66.41;100283.41;126743;1090;114818;-80
2021/06/24 00:21:25;;;;;;;20.63;17.73;;;;;;;21.88;65.86;100286.27;126689;1089;102868;-80
2021/06/24 00:24:13;;;;;;;19.40;16.70;;;;;;;21.83;66.54;100291.11;126628;1088;114767;-79
2021/06/24 00:27:01;;;;;;;20.40;18.20;;;;;;;21.79;66.55;100302.94;126678;1089;102865;-79
2021/06/24 00:29:49;;;;;;;22.10;18.90;;;;;;;21.71;66.63;100312.33;126681;1090;113797;-79
2021/06/24 00:32:37;;;;;;;21.13;19.07;;;;;;;21.63;66.97;100308.59;126722;1089;102966;-79
2021/06/24 00:35:25;;;;;;;21.10;18.90;;;;;;;21.58;67.20;100311.60;126737;1089;103012;-80
2021/06/24 00:38:13;;;;;;;21.30;19.20;;;;;;;21.52;67.14;100305.90;126684;1088;114476;-79
2021/06/24 00:41:02;;;;;;;22.23;19.90;;;;;;;21.45;67.78;100297.58;126721;1089;103010;-79
2021/06/24 00:43:49;;;;;;;22.57;20.13;;;;;;;21.41;67.33;100290.82;126645;1090;114577;-79
2021/06/24 00:46:37;;;;;;;23.07;20.40;;;;;;;21.38;67.91;100286.59;126678;1090;103837;-79
2021/06/24 00:49:25;;;;;;;22.97;20.57;;;;;;;21.36;67.51;100284.99;126721;1089;113355;-79
2021/06/24 00:52:13;;;;;;;23.27;20.87;;;;;;;21.31;67.76;100282.70;126815;1090;102875;-80
2021/06/24 00:55:03;;;;;;;24.40;21.70;;;;;;;21.27;67.79;100289.21;126703;1088;114445;-79
2021/06/24 00:57:51;;;;;;;23.63;20.27;;;;;;;21.28;68.12;100295.36;126850;1090;102893;-79
2021/06/24 01:00:41;;;;;;;23.13;20.67;;;;;;;21.31;68.28;100303.92;126698;1088;114487;-79
2021/06/24 01:03:29;;;;;;;27.10;22.03;;;;;;;21.31;67.96;100303.08;126722;1090;103431;-79
2021/06/24 01:06:17;;;;;;;23.53;21.03;;;;;;;21.30;68.38;100299.58;126750;1089;114871;-79
2021/06/24 01:09:05;;;;;;;24.57;21.90;;;;;;;21.30;67.73;100302.23;126733;1089;103367;-79
2021/06/24 01:11:54;;;;;;;29.83;23.07;;;;;;;21.26;68.41;100303.44;126687;1089;113936;-79
2021/06/24 01:14:42;;;;;;;25.17;22.47;;;;;;;21.23;68.49;100305.45;126805;1089;103096;-79
2021/06/24 01:17:31;;;;;;;26.87;22.77;;;;;;;21.21;68.40;100296.77;126694;1088;103015;-79
2021/06/24 01:20:24;;;;;;;27.50;21.20;;;;;;;21.18;68.31;100292.51;126753;1089;114400;-79
2021/06/24 01:23:13;;;;;;;24.70;22.00;;;;;;;21.20;68.46;100279.16;126671;1090;102908;-79
2021/06/24 01:26:01;;;;;;;27.03;22.30;;;;;;;21.19;68.71;100283.63;126685;1090;114825;-79
2021/06/24 01:28:49;;;;;;;29.97;22.70;;;;;;;21.16;68.64;100283.83;126841;1090;102859;-79
2021/06/24 01:31:37;;;;;;;25.93;21.53;;;;;;;21.17;69.06;100290.82;126549;1089;114624;-79
2021/06/24 01:34:25;;;;;;;23.87;21.13;;;;;;;21.17;68.86;100287.33;126739;1088;102852;-79
2021/06/24 01:37:14;;;;;;;24.90;22.20;;;;;;;21.18;69.24;100273.94;126754;1089;113412;-79
2021/06/24 01:40:03;;;;;;;23.10;20.80;;;;;;;21.23;69.32;100268.31;126838;1089;102967;-79
2021/06/24 01:42:53;;;;;;;23.63;21.03;;;;;;;21.22;68.54;100270.13;126582;1089;113439;-79
2021/06/24 01:45:47;;;;;;;24.37;21.07;;;;;;;21.23;69.19;100257.70;126788;1090;102928;-80
2021/06/24 01:48:36;;;;;;;22.93;20.43;;;;;;;21.27;68.99;100264.48;126720;1090;114753;-80
2021/06/24 01:51:25;;;;;;;21.53;19.43;;;;;;;21.29;69.28;100262.56;126819;1090;102869;-80
2021/06/24 01:54:18;;;;;;;24.33;19.87;;;;;;;21.29;68.57;100262.56;126734;1088;114667;-80
2021/06/24 01:57:07;;;;;;;22.73;20.27;;;;;;;21.30;69.27;100262.44;126743;1089;102868;-80
2021/06/24 01:59:58;;;;;;;28.97;20.77;;;;;;;21.32;69.34;100264.98;126696;1088;102857;-80
2021/06/24 02:02:46;;;;;;;24.23;20.23;;;;;;;21.35;68.85;100267.39;126918;1089;102752;-80
2021/06/24 02:05:44;;;;;;;23.37;19.67;;;;;;;21.34;69.29;100263.89;126883;1090;102894;-80
2021/06/24 02:08:35;;;;;;;21.43;19.13;;;;;;;21.37;69.07;100266.34;126664;1089;114816;-80
2021/06/24 02:11:42;;;;;;;21.53;19.23;;;;;;;21.38;69.31;100273.33;126807;1090;102964;-80
2021/06/24 02:14:29;;;;;;;22.63;20.10;;;;;;;21.40;68.91;100271.41;126791;1089;114571;-80
2021/06/24 02:17:17;;;;;;;22.53;19.43;;;;;;;21.42;69.08;100263.32;126903;1090;103023;-80
2021/06/24 02:20:08;;;;;;;23.17;20.63;;;;;;;21.41;68.79;100261.63;126716;1088;114979;-80
2021/06/24 02:23:14;;;;;;;21.33;19.07;;;;;;;21.42;69.34;100263.32;126693;1089;102862;-80
2021/06/24 02:26:07;;;;;;;21.70;19.37;;;;;;;21.44;68.75;100260.55;126764;1088;113416;-79
2021/06/24 02:29:07;;;;;;;22.43;20.07;;;;;;;21.47;69.01;100255.84;126806;1090;102858;-80
2021/06/24 02:32:02;;;;;;;23.50;19.77;;;;;;;21.50;68.95;100255.59;126674;1089;114899;-80
2021/06/24 02:35:05;;;;;;;28.20;21.83;;;;;;;21.53;69.27;100262.47;126783;1088;103150;-80
2021/06/24 02:38:02;;;;;;;23.27;20.50;;;;;;;21.54;68.97;100272.97;126649;1090;114649;-79
2021/06/24 02:41:12;;;;;;;22.23;19.83;;;;;;;21.53;69.01;100281.89;126766;1090;102881;-79
2021/06/24 02:44:19;;;;;;;26.00;19.97;;;;;;;21.56;69.01;100280.84;126708;1090;114664;-80
2021/06/24 02:47:08;;;;;;;23.67;20.63;;;;;;;21.55;68.83;100268.53;126737;1090;102856;-79
2021/06/24 02:49:57;;;;;;;25.20;20.97;;;;;;;21.57;68.74;100269.26;126620;1090;114491;-79
2021/06/24 02:52:46;;;;;;;23.33;19.97;;;;;;;21.59;68.60;100265.52;126668;1090;102964;-79
2021/06/24 02:55:35;;;;;;;22.63;20.23;;;;;;;21.63;69.08;100261.66;126722;1089;114374;-79
2021/06/24 02:58:23;;;;;;;22.80;20.40;;;;;;;21.64;69.26;100263.34;126796;1090;102685;-79
2021/06/24 03:01:17;;;;;;;23.27;20.53;;;;;;;21.65;68.75;100272.99;126710;1089;114775;-79
2021/06/24 03:04:31;;;;;;;22.93;19.33;;;;;;;21.67;68.66;100255.14;126737;1090;102849;-79
2021/06/24 03:07:19;;;;;;;21.47;19.17;;;;;;;21.69;69.12;100263.82;126714;1090;113497;-79
2021/06/24 03:10:28;;;;;;;21.90;19.37;;;;;;;21.74;68.52;100270.61;126606;1090;102919;-79
2021/06/24 03:13:17;;;;;;;23.07;19.80;;;;;;;21.80;69.43;100272.77;126605;1089;114729;-79
2021/06/24 03:16:06;;;;;;;22.90;20.57;;;;;;;21.87;68.65;100264.19;126689;1087;102651;-79
2021/06/24 03:18:53;;;;;;;23.00;19.87;;;;;;;21.93;68.66;100262.88;126576;1090;114815;-79
2021/06/24 03:21:43;;;;;;;22.07;19.53;;;;;;;21.96;68.67;100262.63;126890;1088;101083;-80
2021/06/24 03:24:32;;;;;;;22.73;20.10;;;;;;;21.98;68.30;100279.28;126566;1090;113622;-79
2021/06/24 03:27:20;;;;;;;23.10;19.37;;;;;;;22.01;68.46;100281.69;126649;1090;102702;-80
2021/06/24 03:30:28;;;;;;;24.70;19.98;;;;;;;22.03;68.17;100279.76;126600;1090;114974;-79
2021/06/24 03:33:17;;;;;;;21.80;19.13;;;;;;;22.07;68.52;100281.23;126712;1089;102936;-79
2021/06/24 03:36:05;;;;;;;23.10;20.53;;;;;;;22.16;68.11;100275.20;126666;1090;103368;-79
2021/06/24 03:38:55;;;;;;;25.33;20.30;;;;;;;22.23;68.10;100276.39;126579;1090;114479;-79
2021/06/24 03:41:46;;;;;;;24.00;21.50;;;;;;;22.30;67.87;100277.59;126766;1088;102871;-79
2021/06/24 03:44:35;;;;;;;23.30;20.80;;;;;;;22.40;67.74;100263.56;126722;1089;114619;-79
2021/06/24 03:47:23;;;;;;;21.87;19.40;;;;;;;22.47;67.74;100272.73;126706;1089;103016;-79
2021/06/24 03:50:13;;;;;;;27.80;21.50;;;;;;;22.57;68.38;100271.00;126639;1090;114632;-79
2021/06/24 03:53:03;;;;;;;26.33;22.53;;;;;;;22.65;67.46;100265.08;126698;1090;103029;-79
2021/06/24 03:55:52;;;;;;;24.20;21.70;;;;;;;22.71;67.47;100260.09;126549;1090;114604;-79
2021/06/24 03:58:50;;;;;;;24.77;20.60;;;;;;;22.76;67.26;100244.59;126677;1090;103007;-79
2021/06/24 04:01:45;;;;;;;22.40;19.98;;;;;;;22.83;67.23;100243.16;126706;1090;114497;-79
2021/06/24 04:04:34;;;;;;;23.27;21.03;;;;;;;22.89;67.17;100241.80;126889;1090;103125;-80
2021/06/24 04:07:22;;;;;;;22.40;19.40;;;;;;;22.92;67.03;100241.53;126707;1089;114517;-79
2021/06/24 04:10:12;;;;;;;21.60;19.33;;;;;;;22.96;66.58;100242.11;126850;1090;102632;-79
2021/06/24 04:13:00;;;;;;;22.93;20.53;;;;;;;23.01;67.07;100234.61;126732;1090;114071;-80
2021/06/24 04:15:53;;;;;;;22.40;20.07;;;;;;;23.03;66.72;100235.33;126957;1089;103007;-80
2021/06/24 04:18:41;;;;;;;25.80;22.53;;;;;;;23.05;66.59;100238.70;126719;1088;113800;-79
2021/06/24 04:21:30;;;;;;;23.30;20.90;;;;;;;23.08;66.46;100231.30;126738;1090;102920;-80
2021/06/24 04:24:18;;;;;;;22.50;20.27;;;;;;;23.08;66.52;100233.12;126653;1090;102866;-80
2021/06/24 04:27:06;;;;;;;22.37;20.17;;;;;;;23.08;66.40;100241.94;126624;1090;114387;-80
2021/06/24 04:29:56;;;;;;;24.10;20.40;;;;;;;23.09;66.41;100242.78;126688;1089;102930;-80
2021/06/24 04:32:45;;;;;;;21.53;19.27;;;;;;;23.10;66.25;100234.67;126619;1090;113514;-79
2021/06/24 04:35:36;;;;;;;23.80;21.37;;;;;;;23.17;66.51;100235.02;126761;1090;102848;-80
2021/06/24 04:38:30;;;;;;;24.80;21.80;;;;;;;23.18;66.38;100212.75;126674;1089;114601;-79
2021/06/24 04:41:19;;;;;;;29.45;23.20;;;;;;;23.18;66.50;100218.08;126838;1089;102907;-80
2021/06/24 04:44:19;;;;;;;24.63;22.03;;;;;;;23.23;66.10;100234.48;126603;1090;113597;-80
2021/06/24 04:47:07;;;;;;;23.00;20.43;;;;;;;23.29;66.29;100239.27;126721;1090;102863;-80
2021/06/24 04:49:55;;;;;;;22.78;19.75;;;;;;;23.33;66.07;100240.69;126724;1090;114581;-79
2021/06/24 04:53:10;;;;;;;22.17;19.77;;;;;;;23.37;66.19;100251.94;126789;1090;103029;-79
2021/06/24 04:56:21;;;;;;;23.07;20.73;;;;;;;23.38;65.79;100259.80;126702;1089;114596;-79
2021/06/24 04:59:10;;;;;;;25.07;22.03;;;;;;;23.40;66.24;100252.52;126744;1090;103001;-79
2021/06/24 05:02:29;;;;;;;23.20;20.73;;;;;;;23.44;66.31;100245.11;126877;1090;114616;-80
2021/06/24 05:05:43;;;;;;;24.13;20.97;;;;;;;23.45;65.92;100244.97;126837;1090;101954;-80
2021/06/24 05:08:32;;;;;;;20.65;18.35;;;;;;;23.50;65.93;100237.42;126564;1090;113599;-79
2021/06/24 05:11:21;;;;;;;21.60;18.10;;;;;;;23.54;65.62;100226.54;126707;1089;102882;-79
2021/06/24 05:14:09;;;;;;;20.23;17.17;;;;;;;23.58;65.50;100217.34;126596;1089;114576;-80
2021/06/24 05:16:57;;;;;;;20.73;17.07;;;;;;;23.58;65.18;100217.34;126684;1090;102854;-79
2021/06/24 05:19:45;;;;;;;20.35;17.28;;;;;;;23.59;65.48;100208.38;126626;1090;113538;-79
2021/06/24 05:22:33;;;;;;;21.30;17.03;;;;;;;23.68;65.49;100191.58;126813;1090;102997;-79
2021/06/24 05:25:22;;;;;;;20.20;16.90;;;;;;;23.79;65.38;100189.67;126696;1090;114885;-79
2021/06/24 05:28:10;;;;;;;19.83;17.00;;;;;;;23.90;64.91;100193.22;126707;1089;102877;-79
2021/06/24 05:30:57;;;;;;;20.70;17.15;;;;;;;24.01;65.35;100179.77;126625;1090;113859;-79
2021/06/24 05:33:45;;;;;;;18.03;14.77;;;;;;;24.16;64.40;100182.89;126686;1090;102887;-79
2021/06/24 05:36:33;;;;;;;20.13;13.83;;;;;;;24.34;64.20;100199.91;126780;1090;103111;-79
2021/06/24 05:39:21;;;;;;;20.00;13.70;;;;;;;24.44;63.95;100199.94;126767;1089;114447;-80
2021/06/24 05:42:09;;;;;;;18.57;12.47;;;;;;;24.57;63.47;100192.48;126912;1088;102866;-79
2021/06/24 05:44:57;;;;;;;18.60;13.93;;;;;;;24.81;63.07;100195.59;126633;1090;114417;-80
2021/06/24 05:47:44;;;;;;;15.53;12.10;;;;;;;25.12;62.62;100196.25;126781;1090;102941;-81
2021/06/24 05:50:34;;;;;;;15.47;11.53;;;;;;;25.47;62.13;100192.92;126548;1089;114672;-79
2021/06/24 05:53:23;;;;;;;14.17;10.63;;;;;;;25.90;61.05;100194.19;126726;1090;103000;-79
2021/06/24 05:56:13;;;;;;;15.83;10.33;;;;;;;26.12;60.33;100211.64;126674;1089;114713;-79
2021/06/24 05:59:03;;;;;;;12.97;10.70;;;;;;;26.33;59.51;100211.36;126728;1089;102946;-80
2021/06/24 06:01:51;;;;;;;13.50;10.13;;;;;;;26.45;59.10;100194.14;126596;1089;114819;-80
2021/06/24 06:04:39;;;;;;;14.40;10.70;;;;;;;26.57;58.64;100184.91;126801;1089;104103;-80
2021/06/24 06:07:27;;;;;;;13.43;10.77;;;;;;;26.83;58.48;100187.62;126676;1090;114938;-80
2021/06/24 06:10:16;;;;;;;14.83;10.90;;;;;;;27.39;57.99;100184.52;126848;1090;103277;-80
2021/06/24 06:13:05;;;;;;;16.27;11.33;;;;;;;27.99;55.77;100151.45;126619;1090;114877;-80
2021/06/24 06:15:53;;;;;;;12.50;10.33;;;;;;;28.39;55.31;100147.22;126825;1090;103017;-80
2021/06/24 06:18:41;;;;;;;14.17;9.73;;;;;;;28.78;54.80;100158.95;126763;1090;102889;-80
2021/06/24 06:21:30;;;;;;;14.00;9.87;;;;;;;28.99;53.76;100181.78;126632;1089;114267;-80
2021/06/24 06:24:19;;;;;;;14.43;9.67;;;;;;;28.80;53.43;100170.36;126749;1090;102651;-80
2021/06/24 06:27:07;;;;;;;13.17;10.23;;;;;;;28.51;53.11;100152.06;126760;1089;114321;-80
2021/06/24 06:29:55;;;;;;;11.97;9.53;;;;;;;28.21;53.29;100161.58;126838;1089;102872;-80
2021/06/24 06:32:43;;;;;;;10.57;9.27;;;;;;;27.89;53.66;100150.77;126732;1090;115398;-80
2021/06/24 06:35:32;;;;;;;16.20;9.43;;;;;;;27.56;54.21;100136.38;126660;1089;102988;-80
2021/06/24 06:38:20;;;;;;;15.37;8.73;;;;;;;27.25;54.15;100128.02;126626;1090;114423;-80
2021/06/24 06:41:08;;;;;;;13.23;8.97;;;;;;;26.97;54.99;100106.77;126769;1088;102972;-80
2021/06/24 06:43:56;;;;;;;12.93;10.03;;;;;;;26.82;55.10;100102.98;126675;1090;114335;-81
2021/06/24 06:46:44;;;;;;;13.03;9.73;;;;;;;26.59;55.07;100123.23;126775;1090;102950;-80
2021/06/24 06:49:31;;;;;;;15.83;9.73;;;;;;;26.30;55.65;100120.77;126760;1090;113885;-80
2021/06/24 06:52:20;;;;;;;11.60;9.17;;;;;;;26.04;56.17;100096.64;126764;1089;102846;-81
2021/06/24 06:55:08;;;;;;;13.00;9.40;;;;;;;25.80;56.58;100116.75;126806;1090;102869;-80
2021/06/24 06:57:57;;;;;;;16.17;9.43;;;;;;;25.61;56.83;100163.07;126763;1090;102876;-81
2021/06/24 07:00:45;;;;;;;11.33;10.17;;;;;;;25.28;56.94;100239.20;126667;1089;102852;-81
2021/06/24 07:03:33;;;;;;;19.77;11.80;;;;;;;24.93;59.12;100263.80;126784;1089;114743;-81
2021/06/24 07:06:21;;;;;;;22.90;16.90;;;;;;;24.47;60.43;100268.97;126888;1089;102888;-81
2021/06/24 07:09:09;;;;;;;20.30;13.97;;;;;;;23.93;61.59;100272.85;126650;1090;114522;-80
2021/06/24 07:11:56;;;;;;;14.63;11.40;;;;;;;23.34;62.47;100282.33;126778;1090;103087;-80
2021/06/24 07:14:44;;;;;;;16.90;10.23;;;;;;;22.84;63.45;100234.21;126615;1088;114432;-80
2021/06/24 07:17:31;;;;;;;10.70;6.63;;;;;;;22.41;64.85;100158.95;126773;1090;102847;-81
2021/06/24 07:20:20;;;;;;;10.33;5.43;;;;;;;21.96;66.01;100302.47;126736;1090;113938;-80
2021/06/24 07:23:08;;;;;;;6.87;4.00;;;;;;;21.55;66.99;100354.30;126792;1089;101720;-80
2021/06/24 07:25:56;;;;;;;9.27;3.77;;;;;;;21.23;67.75;100406.25;126593;1089;114337;-80
2021/06/24 07:28:44;;;;;;;10.57;5.00;;;;;;;20.95;69.91;100392.34;126805;1090;103479;-79
2021/06/24 07:31:32;;;;;;;10.37;4.17;;;;;;;20.63;69.67;100351.41;126693;1088;102839;-80
2021/06/24 07:34:20;;;;;;;6.97;3.50;;;;;;;20.29;68.66;100351.17;126581;1090;103658;-80
2021/06/24 07:37:07;;;;;;;6.03;2.13;;;;;;;20.06;68.81;100359.86;126698;1090;102855;-80
2021/06/24 07:39:58;;;;;;;5.00;2.00;;;;;;;19.87;69.08;100366.42;126781;1090;114323;-80
2021/06/24 07:42:47;;;;;;;6.23;2.27;;;;;;;19.76;69.44;100366.34;126773;1090;103176;-80
2021/06/24 07:45:36;;;;;;;5.60;2.60;;;;;;;19.68;70.22;100365.15;126642;1089;114714;-80
2021/06/24 07:48:25;;;;;;;8.03;3.23;;;;;;;19.65;70.85;100392.67;126765;1089;102930;-80
2021/06/24 07:51:15;;;;;;;6.67;3.40;;;;;;;19.54;71.30;100387.23;126616;1089;114169;-80
2021/06/24 07:54:03;;;;;;;6.80;4.20;;;;;;;19.49;72.47;100389.31;126695;1088;103061;-80
2021/06/24 07:56:51;;;;;;;9.57;5.10;;;;;;;19.45;72.46;100345.52;126568;1090;114241;-80
2021/06/24 07:59:39;;;;;;;8.13;5.13;;;;;;;19.55;72.98;100343.95;126792;1090;102881;-79
2021/06/24 08:02:27;;;;;;;16.13;7.13;;;;;;;19.70;73.74;100320.91;126562;1090;114462;-81
2021/06/24 08:05:16;;;;;;;11.07;6.13;;;;;;;19.83;73.70;100277.61;126743;1090;102994;-80
2021/06/24 08:08:04;;;;;;;9.07;5.40;;;;;;;19.96;73.56;100260.88;126743;1088;114585;-80
2021/06/24 08:10:52;;;;;;;10.63;5.70;;;;;;;20.07;73.91;100245.90;126666;1089;102984;-80
2021/06/24 08:13:40;;;;;;;10.77;5.00;;;;;;;20.16;73.74;100216.13;126732;1090;102866;-80
2021/06/24 08:16:30;;;;;;;13.87;5.37;;;;;;;20.17;73.92;100187.84;126581;1090;114418;-80
2021/06/24 08:19:19;;;;;;;11.00;6.10;;;;;;;20.14;73.52;100109.48;126708;1089;102950;-82
2021/06/24 08:22:07;;;;;;;13.00;6.90;;;;;;;20.19;73.69;100011.16;126731;1090;114282;-80
2021/06/24 08:24:55;;;;;;;12.93;7.43;;;;;;;20.25;74.34;99986.84;126905;1089;103039;-80
2021/06/24 08:27:43;;;;;;;9.87;7.33;;;;;;;20.30;74.39;99950.28;126724;1090;114126;-80
2021/06/24 08:30:32;;;;;;;13.70;8.27;;;;;;;20.27;74.77;99966.39;126682;1090;102940;-79
2021/06/24 08:33:20;;;;;;;15.30;9.87;;;;;;;20.28;74.65;99928.34;126744;1089;114253;-79
2021/06/24 08:36:07;;;;;;;14.30;9.93;;;;;;;20.36;75.15;99915.37;126870;1090;102887;-79
2021/06/24 08:38:56;;;;;;;13.10;9.33;;;;;;;20.37;75.79;99929.45;126713;1088;114141;-79
2021/06/24 08:41:51;;;;;;;12.87;9.20;;;;;;;20.27;76.28;99950.50;126855;1090;102982;-80
2021/06/24 08:44:40;;;;;;;14.50;8.63;;;;;;;20.12;76.22;99994.06;126840;1089;114439;-80
2021/06/24 08:47:31;;;;;;;13.07;9.27;;;;;;;20.06;77.11;100019.17;126949;1089;102885;-80
2021/06/24 08:50:19;;;;;;;13.77;8.10;;;;;;;20.03;76.68;100031.80;126718;1089;113358;-80
2021/06/24 08:53:07;;;;;;;11.97;6.70;;;;;;;20.02;76.44;100019.52;126747;1089;103077;-80
2021/06/24 08:55:56;;;;;;;11.53;7.93;;;;;;;20.06;78.13;100031.56;126817;1089;103071;-80
2021/06/24 08:58:45;;;;;;;11.57;7.40;;;;;;;20.06;77.54;100026.27;126800;1088;114170;-80
2021/06/24 09:01:50;;;;;;;12.03;7.57;;;;;;;20.05;77.27;100025.43;126968;1089;101860;-80
2021/06/24 09:04:49;;;;;;;15.17;7.80;;;;;;;20.06;77.21;100028.92;126833;1089;114409;-80
2021/06/24 09:07:50;;;;;;;11.08;7.40;;;;;;;20.08;77.03;100034.94;126798;1090;102949;-81
2021/06/24 09:10:38;;;;;;;11.20;7.33;;;;;;;20.18;76.73;100062.44;126774;1089;114281;-82
2021/06/24 09:13:26;;;;;;;15.53;8.60;;;;;;;20.32;76.92;100080.79;126811;1090;102859;-82
2021/06/24 09:16:20;;;;;;;11.93;8.00;;;;;;;20.41;76.32;100079.27;126865;1090;114404;-82
2021/06/24 09:19:14;;;;;;;14.73;7.93;;;;;;;20.50;76.20;100092.67;126856;1090;102898;-81
2021/06/24 09:22:08;;;;;;;17.07;8.33;;;;;;;20.62;75.88;100133.27;126670;1088;113250;-81
2021/06/24 09:24:57;;;;;;;10.00;7.13;;;;;;;20.69;75.72;100146.92;126731;1089;103002;-82
2021/06/24 09:27:47;;;;;;;12.70;7.20;;;;;;;20.71;75.80;100168.85;126633;1090;114518;-82
2021/06/24 09:30:37;;;;;;;12.83;7.60;;;;;;;20.63;75.40;100168.56;126838;1090;101262;-81
2021/06/24 09:33:25;;;;;;;12.33;6.60;;;;;;;20.58;75.29;100168.08;126649;1090;114279;-81
2021/06/24 09:36:31;;;;;;;14.77;6.63;;;;;;;20.58;75.58;100170.73;126686;1087;103426;-82
2021/06/24 09:39:36;;;;;;;17.80;7.40;;;;;;;20.67;75.08;100175.35;126823;1089;114480;-81
2021/06/24 09:42:25;;;;;;;14.40;7.27;;;;;;;20.74;74.21;100192.47;126729;1088;102846;-81
2021/06/24 09:45:13;;;;;;;12.63;7.13;;;;;;;20.76;74.35;100175.48;126704;1088;114372;-81
2021/06/24 09:48:11;;;;;;;11.37;7.50;;;;;;;20.78;74.20;100188.63;126784;1090;102827;-81
2021/06/24 09:51:06;;;;;;;;;;;;;;;20.86;74.18;100207.45;126868;1088;114724;-79
2021/06/24 09:54:04;;;;;;;14.20;7.30;;;;;;;20.93;73.66;100206.02;126812;1089;102873;-82
2021/06/24 09:56:52;;;;;;;11.13;7.30;;;;;;;21.06;73.86;100213.91;126744;1089;114694;-79
2021/06/24 09:59:40;;;;;;;10.33;6.77;;;;;;;21.29;73.59;100226.27;126778;1089;103039;-81
2021/06/24 10:02:28;;;;;;;12.13;7.80;;;;;;;21.52;72.95;100226.29;126820;1090;114487;-81
2021/06/24 10:05:16;;;;;;;14.27;7.50;;;;;;;21.76;72.43;100228.85;126684;1090;102994;-81
2021/06/24 10:08:04;;;;;;;9.83;6.20;;;;;;;22.06;72.10;100217.61;126816;1090;102999;-81
2021/06/24 10:10:52;;;;;;;10.57;6.63;;;;;;;22.46;71.61;100225.88;126648;1089;114031;-81
2021/06/24 10:13:39;;;;;;;15.90;7.43;;;;;;;22.89;70.85;100232.00;126785;1090;100511;-81
2021/06/24 10:16:29;;;;;;;13.20;7.20;;;;;;;23.42;70.88;100233.75;126612;1090;114468;-81
2021/06/24 10:19:27;;;;;;;12.55;7.35;;;;;;;24.02;69.48;100227.58;126660;1089;102878;-80
2021/06/24 10:22:19;;;;;;;12.15;7.40;;;;;;;24.63;68.26;100213.28;126701;1090;113249;-81
2021/06/24 10:25:15;;;;;;;9.20;6.70;;;;;;;25.18;66.31;100218.88;126727;1090;102820;-78
2021/06/24 10:28:04;;;;;;;11.23;7.03;;;;;;;25.53;64.85;100220.89;126764;1088;114374;-79
2021/06/24 10:30:51;;;;;;;11.17;6.20;;;;;;;25.83;63.83;100215.30;126636;1090;102915;-79
2021/06/24 10:33:55;;;;;;;16.77;6.70;;;;;;;26.20;63.84;100215.23;126550;1090;114905;-79
2021/06/24 10:37:12;;;;;;;12.37;6.40;;;;;;;26.66;61.84;100210.72;126617;1090;103112;-79
2021/06/24 10:40:21;;;;;;;10.40;5.80;;;;;;;26.86;60.70;100203.36;126676;1089;114387;-79
2021/06/24 10:43:12;;;;;;;15.17;5.70;;;;;;;26.98;60.36;100196.77;126784;1089;102886;-81
2021/06/24 10:46:17;;;;;;;9.53;5.47;;;;;;;27.12;59.53;100190.05;126756;1088;113494;-80
2021/06/24 10:49:22;;;;;;;13.90;5.00;;;;;;;27.33;59.21;100189.67;126889;1089;102882;-80
2021/06/24 10:52:24;;;;;;;11.53;5.20;;;;;;;27.43;58.39;100182.35;126669;1088;114453;-80
2021/06/24 10:55:52;;;;;;;9.33;5.37;;;;;;;27.59;57.68;100182.44;126991;1090;102937;-80
2021/06/24 10:58:40;;;;;;;9.43;5.63;;;;;;;27.71;57.60;100190.23;126582;1093;114435;-80
2021/06/24 11:01:42;;;;;;;8.90;4.90;;;;;;;27.91;58.16;100186.29;126675;1092;102947;-80
2021/06/24 11:04:34;;;;;;;7.83;4.37;;;;;;;28.27;58.44;100181.55;126339;1092;113140;-80
2021/06/24 11:07:30;;;;;;;5.67;3.90;;;;;;;28.72;58.65;100173.02;126474;1093;102988;-80
2021/06/24 11:10:25;;;;;;;9.20;4.50;;;;;;;29.08;56.90;100178.90;126584;1093;114160;-80
2021/06/24 11:13:15;;;;;;;8.83;4.30;;;;;;;29.27;55.88;100164.29;126655;1092;103004;-80
2021/06/24 11:16:24;;;;;;;9.23;4.83;;;;;;;29.61;56.00;100155.11;126411;1092;114178;-80
2021/06/24 11:19:15;;;;;;;6.03;4.37;;;;;;;29.97;55.61;100141.99;126581;1092;102650;-81
2021/06/24 11:22:03;;;;;;;8.00;3.70;;;;;;;30.31;54.87;100147.85;126537;1092;115261;-81
2021/06/24 11:24:58;;;;;;;6.90;3.93;;;;;;;30.63;54.15;100141.41;126687;1092;103071;-81
2021/06/24 11:27:46;;;;;;;5.17;3.10;;;;;;;30.84;52.72;100137.19;126583;1093;113136;-81
2021/06/24 11:31:15;;;;;;;4.80;3.03;;;;;;;31.02;51.81;100137.67;126843;1090;102881;-81
2021/06/24 11:36:55;;;;;;;5.33;3.20;;;;;;;31.34;50.69;100133.83;126385;1092;102991;-81
2021/06/24 11:39:52;;;;;;;5.37;3.10;;;;;;;31.50;50.82;100130.94;126511;1092;113366;-81
2021/06/24 11:42:46;;;;;;;8.17;3.23;;;;;;;31.69;50.33;100134.08;126409;1092;103044;-80
2021/06/24 11:45:33;;;;;;;7.63;2.77;;;;;;;31.74;48.73;100134.36;126553;1093;114179;-81
2021/06/24 11:48:21;;;;;;;5.40;2.57;;;;;;;31.77;47.86;100129.42;126315;1093;102892;-81
2021/06/24 12:03:48;;;;;;;4.90;3.07;;;;;;;31.96;45.94;100110.95;126314;1092;114340;-81
2021/06/24 12:07:11;;;;;;;8.00;3.00;;;;;;;31.84;44.81;100108.78;126869;1090;103048;-81
2021/06/24 12:09:59;;;;;;;8.07;2.80;;;;;;;31.52;44.68;100101.09;126545;1093;114138;-81
2021/06/24 12:12:47;;;;;;;4.80;2.83;;;;;;;31.40;43.85;100089.95;126559;1093;102953;-81
2021/06/24 12:15:37;;;;;;;6.50;2.77;;;;;;;31.42;44.50;100093.32;126515;1092;114296;-82
2021/06/24 12:18:46;;;;;;;5.27;2.70;;;;;;;31.35;44.47;100091.55;126602;1092;102876;-81
2021/06/24 12:21:34;;;;;;;;;;;;;;;31.42;44.91;100087.93;126611;1092;114037;-81
2021/06/24 12:24:53;;;;;;;4.87;2.90;;;;;;;31.34;44.13;100084.48;126668;1092;103691;-81
2021/06/24 12:27:53;;;;;;;6.10;2.70;;;;;;;31.41;43.75;100088.09;126572;1093;114198;-81
2021/06/24 12:30:43;;;;;;;6.50;2.90;;;;;;;31.45;44.18;100086.72;126390;1093;103067;-81
2021/06/24 12:33:31;;;;;;;5.97;2.83;;;;;;;31.56;44.30;100080.82;126337;1092;114372;-81
2021/06/24 12:36:37;;;;;;;5.50;3.20;;;;;;;31.72;43.91;100087.85;126664;1093;102195;-81
2021/06/24 12:39:25;;;;;;;4.33;2.80;;;;;;;31.84;44.07;100080.98;126486;1092;114460;-81
2021/06/24 12:42:13;;;;;;;4.63;2.80;;;;;;;31.96;43.66;100079.45;126653;1093;102879;-81
2021/06/24 12:45:01;;;;;;;7.90;4.95;;;;;;;32.11;44.05;100071.28;126493;1090;114503;-81
2021/06/24 12:48:00;;;;;;;5.08;3.15;;;;;;;32.27;44.37;100075.61;126794;1090;102697;-81
2021/06/24 12:50:48;;;;;;;6.73;3.20;;;;;;;32.36;44.21;100075.30;126656;1090;114267;-81
2021/06/24 12:53:44;;;;;;;5.97;3.10;;;;;;;32.47;44.23;100076.61;126899;1089;103432;-81
2021/06/24 12:56:33;;;;;;;6.53;3.03;;;;;;;32.47;43.87;100071.20;126694;1089;114259;-81
2021/06/24 12:59:22;;;;;;;6.23;4.20;;;;;;;32.45;43.42;100062.48;126813;1089;102855;-81
2021/06/24 13:02:11;;;;;;;7.57;4.70;;;;;;;32.41;43.23;100062.03;126742;1090;102724;-81
2021/06/24 13:04:59;;;;;;;5.73;3.33;;;;;;;32.42;42.63;100052.08;126690;1090;113939;-81